createdAt,value
2017-09-16T00:00:21.765Z,60.57
2017-09-16T00:01:22.375Z,60.92
2017-09-16T00:02:22.983Z,60.76
2017-09-16T00:03:23.741Z,60.64
2017-09-16T00:04:24.351Z,60.86
2017-09-16T00:05:24.977Z,61.21
2017-09-16T00:06:25.569Z,60.95
2017-09-16T00:07:26.218Z,61.05
2017-09-16T00:08:26.972Z,60.95
2017-09-16T00:09:27.587Z,61.21
2017-09-16T00:10:28.196Z,61.05
2017-09-16T00:11:28.804Z,61.43
2017-09-16T00:12:29.412Z,61.33
2017-09-16T00:13:30.171Z,61.21
2017-09-16T00:14:30.781Z,61.11
2017-09-16T00:15:31.388Z,61.40
2017-09-16T00:16:31.997Z,61.49
2017-09-16T00:17:32.614Z,61.11
2017-09-16T00:18:33.519Z,61.30
2017-09-16T00:19:34.124Z,61.40
2017-09-16T00:20:34.760Z,61.49
2017-09-16T00:21:35.367Z,61.40
2017-09-16T00:22:35.976Z,61.40
2017-09-16T00:23:36.738Z,61.96
2017-09-16T00:24:37.344Z,61.68
2017-09-16T00:25:37.958Z,61.68
2017-09-16T00:26:38.567Z,61.96
2017-09-16T00:27:39.170Z,61.96
2017-09-16T00:28:39.934Z,61.87
2017-09-16T00:29:40.566Z,61.96
2017-09-16T00:30:41.209Z,61.77
2017-09-16T00:31:41.816Z,61.77
2017-09-16T00:32:42.429Z,62.05
2017-09-16T00:33:43.285Z,61.96
2017-09-16T00:34:43.902Z,61.96
2017-09-16T00:35:44.502Z,62.05
2017-09-16T00:36:45.140Z,61.96
2017-09-16T00:37:45.755Z,62.05
2017-09-16T00:38:46.515Z,62.05
2017-09-16T00:39:47.121Z,62.15
2017-09-16T00:40:47.731Z,62.34
2017-09-16T00:41:48.346Z,62.24
2017-09-16T00:42:48.949Z,62.24
2017-09-16T00:43:49.714Z,62.34
2017-09-16T00:44:50.319Z,62.34
2017-09-16T00:45:50.927Z,62.24
2017-09-16T00:46:51.540Z,62.24
2017-09-16T00:47:52.155Z,62.34
2017-09-16T00:48:52.911Z,62.34
2017-09-16T00:49:53.529Z,62.34
2017-09-16T00:50:54.168Z,62.05
2017-09-16T00:51:54.777Z,62.15
2017-09-16T00:52:55.386Z,61.96
2017-09-16T00:53:56.244Z,62.15
2017-09-16T00:54:56.850Z,62.24
2017-09-16T00:55:57.459Z,62.05
2017-09-16T00:56:58.066Z,62.34
2017-09-16T00:57:58.680Z,62.34
2017-09-16T00:58:59.440Z,62.24
2017-09-16T01:00:00.052Z,62.05
2017-09-16T01:01:00.657Z,62.15
2017-09-16T01:02:01.270Z,62.15
2017-09-16T01:03:01.874Z,62.05
2017-09-16T01:04:02.633Z,62.34
2017-09-16T01:05:03.273Z,62.24
2017-09-16T01:06:03.880Z,62.62
2017-09-16T01:07:04.489Z,62.43
2017-09-16T01:08:05.098Z,62.43
2017-09-16T01:09:05.854Z,62.34
2017-09-16T01:10:06.463Z,62.62
2017-09-16T01:11:07.073Z,62.53
2017-09-16T01:12:07.718Z,62.43
2017-09-16T01:13:08.358Z,62.43
2017-09-16T01:14:09.276Z,62.62
2017-09-16T01:15:09.912Z,62.34
2017-09-16T01:16:10.519Z,62.34
2017-09-16T01:17:11.127Z,62.34
2017-09-16T01:18:11.735Z,62.34
2017-09-16T01:19:12.492Z,62.34
2017-09-16T01:20:13.100Z,62.34
2017-09-16T01:21:13.710Z,62.34
2017-09-16T01:22:14.318Z,62.43
2017-09-16T01:23:14.955Z,62.34
2017-09-16T01:24:15.713Z,62.43
2017-09-16T01:25:16.354Z,62.34
2017-09-16T01:26:16.967Z,62.15
2017-09-16T01:27:17.571Z,62.62
2017-09-16T01:28:18.179Z,62.34
2017-09-16T01:29:19.087Z,62.43
2017-09-16T01:30:19.700Z,62.62
2017-09-16T01:31:20.311Z,62.72
2017-09-16T01:32:20.915Z,62.34
2017-09-16T01:33:21.524Z,62.72
2017-09-16T01:34:22.320Z,62.72
2017-09-16T01:35:22.929Z,62.72
2017-09-16T01:36:23.533Z,62.82
2017-09-16T01:37:24.173Z,62.43
2017-09-16T01:38:24.780Z,62.53
2017-09-16T01:39:25.648Z,62.53
2017-09-16T01:40:26.246Z,62.43
2017-09-16T01:41:26.853Z,62.24
2017-09-16T01:42:27.468Z,62.34
2017-09-16T01:43:28.082Z,62.43
2017-09-16T01:44:28.836Z,62.53
2017-09-16T01:45:29.459Z,62.53
2017-09-16T01:46:30.054Z,62.72
2017-09-16T01:47:30.700Z,62.53
2017-09-16T01:48:31.310Z,62.53
2017-09-16T01:49:32.065Z,63.35
2017-09-16T01:50:32.674Z,63.16
2017-09-16T01:51:33.282Z,63.26
2017-09-16T01:52:33.899Z,63.16
2017-09-16T01:53:34.501Z,63.45
2017-09-16T01:54:35.263Z,63.54
2017-09-16T01:55:35.870Z,63.35
2017-09-16T01:56:36.480Z,63.45
2017-09-16T01:57:37.095Z,63.45
2017-09-16T01:58:37.703Z,63.26
2017-09-16T01:59:38.458Z,63.35
2017-09-16T02:00:39.102Z,63.16
2017-09-16T02:01:39.712Z,63.82
2017-09-16T02:02:40.316Z,63.82
2017-09-16T02:03:40.925Z,63.82
2017-09-16T02:04:41.682Z,63.82
2017-09-16T02:05:42.293Z,63.82
2017-09-16T02:06:42.934Z,63.73
2017-09-16T02:07:43.542Z,63.82
2017-09-16T02:08:44.149Z,63.54
2017-09-16T02:09:45.058Z,63.73
2017-09-16T02:10:45.665Z,64.20
2017-09-16T02:11:46.272Z,64.01
2017-09-16T02:12:46.879Z,64.11
2017-09-16T02:13:47.491Z,63.92
2017-09-16T02:14:48.248Z,64.30
2017-09-16T02:15:48.854Z,64.30
2017-09-16T02:16:49.495Z,64.39
2017-09-16T02:17:50.102Z,64.68
2017-09-16T02:18:50.709Z,64.49
2017-09-16T02:19:51.566Z,64.49
2017-09-16T02:20:52.206Z,64.20
2017-09-16T02:21:52.814Z,64.30
2017-09-16T02:22:53.454Z,64.30
2017-09-16T02:23:54.066Z,64.20
2017-09-16T02:24:54.849Z,64.58
2017-09-16T02:25:55.460Z,64.20
2017-09-16T02:26:56.074Z,64.49
2017-09-16T02:27:56.678Z,64.30
2017-09-16T02:28:57.286Z,64.20
2017-09-16T02:29:58.144Z,65.06
2017-09-16T02:30:58.751Z,64.77
2017-09-16T02:31:59.358Z,64.77
2017-09-16T02:32:59.965Z,64.77
2017-09-16T02:34:00.577Z,64.77
2017-09-16T02:35:01.333Z,64.68
2017-09-16T02:36:01.943Z,64.58
2017-09-16T02:37:02.547Z,64.77
2017-09-16T02:38:03.156Z,64.68
2017-09-16T02:39:03.763Z,64.77
2017-09-16T02:40:04.555Z,64.87
2017-09-16T02:41:05.162Z,64.96
2017-09-16T02:42:05.770Z,65.53
2017-09-16T02:43:06.378Z,65.31
2017-09-16T02:44:06.985Z,65.81
2017-09-16T02:45:07.741Z,65.72
2017-09-16T02:46:08.349Z,65.72
2017-09-16T02:47:08.956Z,66.25
2017-09-16T02:48:09.595Z,66.16
2017-09-16T02:49:10.208Z,66.16
2017-09-16T02:50:10.963Z,66.16
2017-09-16T02:51:11.573Z,66.38
2017-09-16T02:52:12.193Z,66.25
2017-09-16T02:53:12.787Z,66.16
2017-09-16T02:54:13.400Z,66.09
2017-09-16T02:55:14.153Z,65.88
2017-09-16T02:56:14.767Z,65.88
2017-09-16T02:57:15.370Z,65.91
2017-09-16T02:58:15.983Z,66.00
2017-09-16T02:59:16.592Z,66.63
2017-09-16T03:00:17.457Z,66.38
2017-09-16T03:01:18.097Z,66.25
2017-09-16T03:02:18.715Z,66.16
2017-09-16T03:03:19.320Z,66.44
2017-09-16T03:04:19.926Z,66.63
2017-09-16T03:05:20.694Z,66.92
2017-09-16T03:06:21.294Z,66.92
2017-09-16T03:07:21.905Z,66.25
2017-09-16T03:08:22.516Z,66.92
2017-09-16T03:09:23.119Z,67.01
2017-09-16T03:10:23.881Z,66.44
2017-09-16T03:11:24.488Z,66.16
2017-09-16T03:12:25.093Z,66.35
2017-09-16T03:13:25.699Z,66.44
2017-09-16T03:14:26.305Z,66.44
2017-09-16T03:15:27.062Z,66.44
2017-09-16T03:16:27.669Z,66.82
2017-09-16T03:17:28.282Z,66.35
2017-09-16T03:18:28.890Z,66.38
2017-09-16T03:19:29.495Z,66.47
2017-09-16T03:20:30.259Z,66.76
2017-09-16T03:21:30.864Z,66.82
2017-09-16T03:22:31.471Z,66.95
2017-09-16T03:23:32.079Z,66.86
2017-09-16T03:24:32.695Z,67.01
2017-09-16T03:25:33.447Z,66.73
2017-09-16T03:26:34.061Z,67.05
2017-09-16T03:27:34.673Z,66.95
2017-09-16T03:28:35.276Z,66.82
2017-09-16T03:29:35.883Z,66.76
2017-09-16T03:30:36.641Z,66.92
2017-09-16T03:31:37.248Z,66.73
2017-09-16T03:32:37.861Z,67.14
2017-09-16T03:33:38.467Z,67.05
2017-09-16T03:34:39.079Z,67.05
2017-09-16T03:35:39.834Z,67.11
2017-09-16T03:36:40.440Z,67.11
2017-09-16T03:37:41.048Z,67.20
2017-09-16T03:38:41.656Z,67.20
2017-09-16T03:39:42.267Z,66.92
2017-09-16T03:40:43.056Z,67.49
2017-09-16T03:41:43.695Z,67.30
2017-09-16T03:42:44.304Z,67.49
2017-09-16T03:43:44.910Z,67.86
2017-09-16T03:44:45.522Z,67.96
2017-09-16T03:45:46.277Z,68.05
2017-09-16T03:46:46.890Z,67.96
2017-09-16T03:47:47.494Z,68.24
2017-09-16T03:48:48.101Z,67.77
2017-09-16T03:49:48.717Z,67.90
2017-09-16T03:50:49.505Z,68.18
2017-09-16T03:51:50.116Z,67.49
2017-09-16T03:52:50.719Z,67.49
2017-09-16T03:53:51.333Z,67.33
2017-09-16T03:54:51.936Z,67.43
2017-09-16T03:55:52.693Z,67.61
2017-09-16T03:56:53.301Z,67.58
2017-09-16T03:57:53.908Z,67.52
2017-09-16T03:58:54.520Z,67.61
2017-09-16T03:59:55.164Z,67.58
2017-09-16T04:00:55.918Z,67.61
2017-09-16T04:01:56.525Z,67.43
2017-09-16T04:02:57.132Z,67.58
2017-09-16T04:03:57.738Z,67.58
2017-09-16T04:04:58.346Z,67.58
2017-09-16T04:05:59.103Z,67.58
2017-09-16T04:06:59.711Z,67.49
2017-09-16T04:08:00.319Z,67.49
2017-09-16T04:09:00.927Z,67.49
2017-09-16T04:10:01.533Z,67.30
2017-09-16T04:11:02.295Z,67.30
2017-09-16T04:12:02.940Z,67.30
2017-09-16T04:13:03.544Z,67.39
2017-09-16T04:14:04.185Z,68.24
2017-09-16T04:15:04.796Z,68.15
2017-09-16T04:16:05.552Z,67.86
2017-09-16T04:17:06.158Z,67.86
2017-09-16T04:18:06.764Z,68.15
2017-09-16T04:19:07.373Z,68.05
2017-09-16T04:20:08.011Z,67.96
2017-09-16T04:21:08.769Z,68.15
2017-09-16T04:22:09.382Z,68.43
2017-09-16T04:23:09.987Z,68.05
2017-09-16T04:24:10.593Z,68.24
2017-09-16T04:25:11.202Z,68.43
2017-09-16T04:26:11.959Z,68.43
2017-09-16T04:27:12.573Z,68.24
2017-09-16T04:28:13.179Z,68.24
2017-09-16T04:29:13.789Z,68.43
2017-09-16T04:30:14.398Z,68.15
2017-09-16T04:31:15.152Z,68.33
2017-09-16T04:32:15.796Z,68.24
2017-09-16T04:33:16.432Z,68.24
2017-09-16T04:34:17.045Z,68.33
2017-09-16T04:35:17.648Z,68.05
2017-09-16T04:36:18.406Z,68.90
2017-09-16T04:37:19.014Z,68.71
2017-09-16T04:38:19.626Z,68.62
2017-09-16T04:39:20.231Z,68.62
2017-09-16T04:40:20.840Z,68.90
2017-09-16T04:41:21.598Z,69.00
2017-09-16T04:42:22.209Z,68.52
2017-09-16T04:43:22.848Z,68.33
2017-09-16T04:44:23.458Z,68.15
2017-09-16T04:45:24.063Z,68.24
2017-09-16T04:46:24.825Z,68.24
2017-09-16T04:47:25.433Z,68.33
2017-09-16T04:48:26.071Z,68.24
2017-09-16T04:49:26.676Z,68.43
2017-09-16T04:50:27.283Z,68.33
2017-09-16T04:51:28.048Z,68.24
2017-09-16T04:52:28.651Z,68.15
2017-09-16T04:53:29.264Z,68.05
2017-09-16T04:54:29.874Z,68.71
2017-09-16T04:55:30.477Z,68.62
2017-09-16T04:56:31.234Z,68.62
2017-09-16T04:57:31.841Z,68.90
2017-09-16T04:58:32.449Z,68.81
2017-09-16T04:59:33.055Z,69.00
2017-09-16T05:00:33.661Z,69.00
2017-09-16T05:01:34.417Z,69.47
2017-09-16T05:02:35.024Z,69.19
2017-09-16T05:03:35.646Z,69.19
2017-09-16T05:04:36.241Z,69.09
2017-09-16T05:05:36.845Z,69.00
2017-09-16T05:06:37.608Z,69.28
2017-09-16T05:07:38.218Z,69.19
2017-09-16T05:08:38.856Z,69.00
2017-09-16T05:09:39.463Z,68.62
2017-09-16T05:10:40.069Z,68.71
2017-09-16T05:11:40.829Z,69.19
2017-09-16T05:12:41.469Z,69.19
2017-09-16T05:13:42.075Z,68.62
2017-09-16T05:14:42.683Z,68.90
2017-09-16T05:15:43.294Z,68.90
2017-09-16T05:16:44.049Z,68.90
2017-09-16T05:17:44.662Z,69.19
2017-09-16T05:18:45.270Z,68.90
2017-09-16T05:19:45.873Z,68.62
2017-09-16T05:20:46.480Z,69.19
2017-09-16T05:21:47.239Z,69.19
2017-09-16T05:22:47.852Z,69.00
2017-09-16T05:23:48.456Z,69.28
2017-09-16T05:24:49.063Z,69.09
2017-09-16T05:25:49.671Z,69.00
2017-09-16T05:26:50.432Z,69.00
2017-09-16T05:27:51.039Z,69.38
2017-09-16T05:28:51.655Z,69.38
2017-09-16T05:29:52.259Z,69.38
2017-09-16T05:30:52.866Z,69.00
2017-09-16T05:31:53.625Z,69.00
2017-09-16T05:32:54.241Z,69.19
2017-09-16T05:33:54.880Z,69.28
2017-09-16T05:34:55.487Z,69.38
2017-09-16T05:35:56.100Z,69.28
2017-09-16T05:36:56.855Z,69.47
2017-09-16T05:37:57.463Z,69.09
2017-09-16T05:38:58.073Z,69.09
2017-09-16T05:39:58.679Z,69.09
2017-09-16T05:40:59.286Z,69.09
2017-09-16T05:42:00.074Z,69.38
2017-09-16T05:43:00.686Z,69.09
2017-09-16T05:44:01.295Z,69.09
2017-09-16T05:45:01.902Z,69.28
2017-09-16T05:46:02.511Z,69.09
2017-09-16T05:47:03.268Z,69.47
2017-09-16T05:48:03.876Z,69.47
2017-09-16T05:49:04.489Z,69.19
2017-09-16T05:50:05.099Z,69.47
2017-09-16T05:51:05.737Z,69.57
2017-09-16T05:52:06.494Z,69.28
2017-09-16T05:53:07.103Z,69.28
2017-09-16T05:54:07.717Z,69.28
2017-09-16T05:55:08.323Z,69.09
2017-09-16T05:56:08.931Z,69.00
2017-09-16T05:57:09.696Z,69.19
2017-09-16T05:58:10.300Z,69.19
2017-09-16T05:59:10.907Z,68.90
2017-09-16T06:00:11.523Z,68.52
2017-09-16T06:01:12.132Z,68.56
2017-09-16T06:02:12.921Z,68.62
2017-09-16T06:03:13.528Z,68.46
2017-09-16T06:04:14.145Z,68.37
2017-09-16T06:05:14.752Z,68.27
2017-09-16T06:06:15.360Z,68.27
2017-09-16T06:07:16.149Z,67.99
2017-09-16T06:08:16.762Z,68.37
2017-09-16T06:09:17.370Z,68.18
2017-09-16T06:10:17.976Z,67.99
2017-09-16T06:11:18.585Z,67.99
2017-09-16T06:12:19.353Z,68.08
2017-09-16T06:13:19.951Z,67.99
2017-09-16T06:14:20.559Z,68.18
2017-09-16T06:15:21.168Z,67.90
2017-09-16T06:16:21.776Z,67.61
2017-09-16T06:17:22.534Z,67.33
2017-09-16T06:18:23.143Z,67.24
2017-09-16T06:19:23.751Z,67.52
2017-09-16T06:20:24.357Z,67.61
2017-09-16T06:21:24.972Z,67.52
2017-09-16T06:22:25.728Z,67.52
2017-09-16T06:23:26.335Z,67.52
2017-09-16T06:24:26.983Z,67.52
2017-09-16T06:25:27.629Z,67.61
2017-09-16T06:26:28.238Z,67.71
2017-09-16T06:27:28.994Z,67.52
2017-09-16T06:28:29.603Z,67.71
2017-09-16T06:29:30.211Z,67.52
2017-09-16T06:30:30.851Z,67.33
2017-09-16T06:31:31.458Z,67.05
2017-09-16T06:32:32.221Z,66.67
2017-09-16T06:33:32.827Z,67.33
2017-09-16T06:34:33.434Z,67.43
2017-09-16T06:35:34.043Z,67.61
2017-09-16T06:36:34.654Z,67.61
2017-09-16T06:37:35.415Z,67.61
2017-09-16T06:38:36.022Z,67.52
2017-09-16T06:39:36.629Z,67.52
2017-09-16T06:40:37.246Z,67.52
2017-09-16T06:41:37.853Z,67.61
2017-09-16T06:42:38.618Z,67.52
2017-09-16T06:43:39.226Z,67.43
2017-09-16T06:44:39.834Z,67.36
2017-09-16T06:45:40.446Z,67.46
2017-09-16T06:46:41.060Z,67.55
2017-09-16T06:47:41.815Z,67.65
2017-09-16T06:48:42.428Z,67.55
2017-09-16T06:49:43.035Z,67.74
2017-09-16T06:50:43.644Z,66.99
2017-09-16T06:51:44.255Z,67.08
2017-09-16T06:52:45.022Z,67.27
2017-09-16T06:53:45.627Z,67.08
2017-09-16T06:54:46.238Z,67.08
2017-09-16T06:55:46.848Z,67.18
2017-09-16T06:56:47.456Z,66.80
2017-09-16T06:57:48.218Z,67.27
2017-09-16T06:58:48.833Z,66.60
2017-09-16T06:59:49.440Z,66.54
2017-09-16T07:00:50.050Z,66.54
2017-09-16T07:01:50.658Z,66.83
2017-09-16T07:02:51.418Z,67.11
2017-09-16T07:03:52.028Z,66.93
2017-09-16T07:04:52.638Z,66.54
2017-09-16T07:05:53.246Z,65.97
2017-09-16T07:06:53.857Z,66.35
2017-09-16T07:07:54.618Z,66.16
2017-09-16T07:08:55.227Z,66.26
2017-09-16T07:09:55.839Z,65.97
2017-09-16T07:10:56.462Z,66.16
2017-09-16T07:11:57.068Z,65.88
2017-09-16T07:12:57.826Z,66.07
2017-09-16T07:13:58.440Z,66.16
2017-09-16T07:14:59.048Z,66.16
2017-09-16T07:15:59.662Z,66.16
2017-09-16T07:17:00.271Z,66.64
2017-09-16T07:18:01.063Z,65.88
2017-09-16T07:19:01.676Z,66.26
2017-09-16T07:20:02.286Z,65.97
2017-09-16T07:21:02.903Z,66.16
2017-09-16T07:22:03.544Z,66.26
2017-09-16T07:23:04.311Z,66.26
2017-09-16T07:24:04.928Z,66.26
2017-09-16T07:25:05.543Z,65.88
2017-09-16T07:26:06.151Z,65.59
2017-09-16T07:27:06.762Z,65.69
2017-09-16T07:28:07.522Z,65.88
2017-09-16T07:29:08.133Z,65.22
2017-09-16T07:30:08.774Z,65.12
2017-09-16T07:31:09.392Z,65.22
2017-09-16T07:32:10.005Z,65.53
2017-09-16T07:33:10.766Z,65.41
2017-09-16T07:34:11.376Z,65.44
2017-09-16T07:35:11.989Z,65.82
2017-09-16T07:36:12.602Z,66.20
2017-09-16T07:37:13.219Z,65.91
2017-09-16T07:38:14.011Z,65.72
2017-09-16T07:39:14.624Z,65.82
2017-09-16T07:40:15.235Z,65.82
2017-09-16T07:41:15.854Z,66.01
2017-09-16T07:42:16.459Z,65.91
2017-09-16T07:43:17.220Z,65.25
2017-09-16T07:44:17.833Z,64.59
2017-09-16T07:45:18.450Z,64.87
2017-09-16T07:46:19.060Z,64.59
2017-09-16T07:47:19.672Z,65.25
2017-09-16T07:48:20.440Z,65.44
2017-09-16T07:49:21.048Z,65.44
2017-09-16T07:50:21.660Z,65.06
2017-09-16T07:51:22.272Z,64.97
2017-09-16T07:52:22.885Z,64.20
2017-09-16T07:53:23.654Z,64.71
2017-09-16T07:54:24.273Z,64.33
2017-09-16T07:55:24.878Z,64.90
2017-09-16T07:56:25.493Z,64.43
2017-09-16T07:57:26.108Z,64.14
2017-09-16T07:58:26.867Z,63.86
2017-09-16T07:59:27.479Z,63.86
2017-09-16T08:00:28.094Z,64.33
2017-09-16T08:01:28.738Z,63.86
2017-09-16T08:02:29.345Z,63.48
2017-09-16T08:03:30.107Z,63.48
2017-09-16T08:04:30.721Z,63.29
2017-09-16T08:05:31.331Z,63.29
2017-09-16T08:06:31.943Z,63.48
2017-09-16T08:07:32.557Z,63.67
2017-09-16T08:08:33.323Z,63.67
2017-09-16T08:09:33.935Z,63.29
2017-09-16T08:10:34.547Z,63.39
2017-09-16T08:11:35.196Z,62.82
2017-09-16T08:12:35.807Z,62.34
2017-09-16T08:13:36.606Z,62.72
2017-09-16T08:14:37.248Z,61.87
2017-09-16T08:15:37.862Z,61.61
2017-09-16T08:16:38.473Z,60.53
2017-09-16T08:17:39.085Z,59.49
2017-09-16T08:18:39.846Z,59.40
2017-09-16T08:19:40.458Z,60.06
2017-09-16T08:20:41.074Z,60.63
2017-09-16T08:21:41.685Z,60.63
2017-09-16T08:22:42.298Z,60.73
2017-09-16T08:23:43.063Z,60.82
2017-09-16T08:24:43.675Z,60.85
2017-09-16T08:25:44.287Z,60.35
2017-09-16T08:26:44.897Z,60.47
2017-09-16T08:27:45.509Z,60.47
2017-09-16T08:28:46.277Z,60.95
2017-09-16T08:29:46.889Z,60.66
2017-09-16T08:30:47.505Z,59.33
2017-09-16T08:31:48.115Z,59.52
2017-09-16T08:32:48.727Z,59.71
2017-09-16T08:33:49.490Z,59.05
2017-09-16T08:34:50.136Z,58.95
2017-09-16T08:35:50.746Z,58.10
2017-09-16T08:36:51.397Z,57.53
2017-09-16T08:37:52.013Z,58.00
2017-09-16T08:38:52.772Z,58.39
2017-09-16T08:39:53.386Z,58.67
2017-09-16T08:40:54.000Z,58.76
2017-09-16T08:41:54.609Z,58.67
2017-09-16T08:42:55.222Z,58.39
2017-09-16T08:43:55.984Z,58.67
2017-09-16T08:44:56.597Z,58.20
2017-09-16T08:45:57.209Z,58.29
2017-09-16T08:46:57.826Z,58.32
2017-09-16T08:47:58.438Z,58.48
2017-09-16T08:48:59.200Z,58.03
2017-09-16T08:49:59.816Z,58.41
2017-09-16T08:51:00.430Z,58.61
2017-09-16T08:52:01.047Z,58.22
2017-09-16T08:53:01.656Z,58.32
2017-09-16T08:54:02.419Z,58.61
2017-09-16T08:55:03.033Z,58.51
2017-09-16T08:56:03.643Z,59.08
2017-09-16T08:57:04.255Z,58.22
2017-09-16T08:58:04.868Z,57.84
2017-09-16T08:59:05.635Z,58.03
2017-09-16T09:00:06.277Z,57.37
2017-09-16T09:01:06.893Z,57.21
2017-09-16T09:02:07.511Z,57.68
2017-09-16T09:03:08.124Z,57.68
2017-09-16T09:04:08.893Z,57.78
2017-09-16T09:05:09.502Z,57.97
2017-09-16T09:06:10.115Z,56.83
2017-09-16T09:07:10.734Z,57.21
2017-09-16T09:08:11.345Z,57.11
2017-09-16T09:09:12.109Z,56.83
2017-09-16T09:10:12.722Z,56.07
2017-09-16T09:11:13.335Z,54.93
2017-09-16T09:12:13.956Z,54.83
2017-09-16T09:13:14.568Z,55.30
2017-09-16T09:14:15.333Z,55.59
2017-09-16T09:15:15.944Z,56.07
2017-09-16T09:16:16.557Z,56.16
2017-09-16T09:17:17.176Z,56.00
2017-09-16T09:18:17.788Z,55.33
2017-09-16T09:19:18.553Z,55.15
2017-09-16T09:20:19.166Z,55.15
2017-09-16T09:21:19.781Z,55.33
2017-09-16T09:22:20.395Z,55.05
2017-09-16T09:23:21.011Z,54.96
2017-09-16T09:24:21.775Z,54.86
2017-09-16T09:25:22.389Z,53.72
2017-09-16T09:26:23.002Z,53.43
2017-09-16T09:27:23.616Z,53.91
2017-09-16T09:28:24.228Z,54.19
2017-09-16T09:29:24.993Z,53.43
2017-09-16T09:30:25.611Z,53.94
2017-09-16T09:31:26.223Z,54.32
2017-09-16T09:32:26.843Z,54.60
2017-09-16T09:33:27.456Z,53.94
2017-09-16T09:34:28.222Z,52.41
2017-09-16T09:35:28.872Z,52.13
2017-09-16T09:36:29.483Z,52.22
2017-09-16T09:37:30.128Z,52.22
2017-09-16T09:38:30.744Z,52.32
2017-09-16T09:39:31.513Z,52.61
2017-09-16T09:40:32.124Z,52.61
2017-09-16T09:41:32.738Z,52.80
2017-09-16T09:42:33.358Z,52.70
2017-09-16T09:43:33.971Z,52.22
2017-09-16T09:44:34.736Z,52.32
2017-09-16T09:45:35.349Z,52.32
2017-09-16T09:46:35.971Z,52.22
2017-09-16T09:47:36.582Z,52.80
2017-09-16T09:48:37.196Z,52.41
2017-09-16T09:49:37.959Z,52.03
2017-09-16T09:50:38.573Z,52.25
2017-09-16T09:51:39.218Z,52.15
2017-09-16T09:52:39.833Z,51.78
2017-09-16T09:53:40.447Z,51.20
2017-09-16T09:54:41.211Z,51.04
2017-09-16T09:55:41.829Z,50.66
2017-09-16T09:56:42.452Z,49.23
2017-09-16T09:57:43.062Z,48.25
2017-09-16T09:58:43.683Z,48.44
2017-09-16T09:59:44.445Z,48.06
2017-09-16T10:00:45.061Z,48.63
2017-09-16T10:01:45.681Z,48.90
2017-09-16T10:02:46.293Z,48.99
2017-09-16T10:03:46.912Z,48.42
2017-09-16T10:04:47.676Z,48.73
2017-09-16T10:05:48.291Z,47.97
2017-09-16T10:06:48.908Z,48.35
2017-09-16T10:07:49.524Z,48.44
2017-09-16T10:08:50.143Z,49.11
2017-09-16T10:09:50.906Z,49.80
2017-09-16T10:10:51.522Z,49.35
2017-09-16T10:11:52.137Z,48.68
2017-09-16T10:12:52.751Z,48.49
2017-09-16T10:13:53.399Z,48.21
2017-09-16T10:14:54.167Z,47.92
2017-09-16T10:15:54.785Z,48.02
2017-09-16T10:16:55.404Z,48.49
2017-09-16T10:17:56.018Z,47.37
2017-09-16T10:18:56.635Z,46.80
2017-09-16T10:19:57.432Z,45.63
2017-09-16T10:20:58.055Z,45.92
2017-09-16T10:21:58.672Z,46.49
2017-09-16T10:22:59.288Z,47.44
2017-09-16T10:23:59.906Z,47.63
2017-09-16T10:25:00.675Z,47.25
2017-09-16T10:26:01.297Z,46.68
2017-09-16T10:27:01.913Z,46.49
2017-09-16T10:28:02.536Z,47.34
2017-09-16T10:29:03.155Z,47.25
2017-09-16T10:30:03.959Z,46.78
2017-09-16T10:31:04.575Z,46.97
2017-09-16T10:32:05.194Z,46.68
2017-09-16T10:33:05.818Z,46.78
2017-09-16T10:34:06.440Z,46.68
2017-09-16T10:35:07.253Z,46.61
2017-09-16T10:36:07.882Z,46.80
2017-09-16T10:37:08.495Z,46.49
2017-09-16T10:38:09.109Z,46.11
2017-09-16T10:39:09.727Z,45.06
2017-09-16T10:40:10.494Z,44.87
2017-09-16T10:41:11.118Z,45.04
2017-09-16T10:42:11.739Z,45.32
2017-09-16T10:43:12.357Z,46.09
2017-09-16T10:44:12.973Z,46.37
2017-09-16T10:45:13.772Z,46.78
2017-09-16T10:46:14.394Z,46.78
2017-09-16T10:47:15.014Z,46.01
2017-09-16T10:48:15.628Z,45.89
2017-09-16T10:49:16.250Z,45.89
2017-09-16T10:50:17.019Z,45.61
2017-09-16T10:51:17.634Z,46.28
2017-09-16T10:52:18.251Z,46.49
2017-09-16T10:53:18.870Z,46.78
2017-09-16T10:54:19.485Z,46.39
2017-09-16T10:55:20.253Z,46.78
2017-09-16T10:56:20.869Z,46.20
2017-09-16T10:57:21.485Z,45.83
2017-09-16T10:58:22.104Z,45.54
2017-09-16T10:59:22.720Z,45.83
2017-09-16T11:00:23.494Z,46.01
2017-09-16T11:01:24.115Z,46.49
2017-09-16T11:02:24.733Z,46.01
2017-09-16T11:03:25.352Z,45.94
2017-09-16T11:04:25.966Z,45.75
2017-09-16T11:05:26.821Z,45.84
2017-09-16T11:06:27.442Z,45.08
2017-09-16T11:07:28.053Z,44.42
2017-09-16T11:08:28.670Z,44.13
2017-09-16T11:09:29.289Z,44.68
2017-09-16T11:10:30.057Z,44.30
2017-09-16T11:11:30.675Z,44.78
2017-09-16T11:12:31.296Z,45.06
2017-09-16T11:13:31.909Z,44.89
2017-09-16T11:14:32.568Z,44.68
2017-09-16T11:15:33.325Z,44.20
2017-09-16T11:16:33.942Z,44.49
2017-09-16T11:17:34.560Z,44.39
2017-09-16T11:18:35.184Z,44.59
2017-09-16T11:19:35.798Z,44.49
2017-09-16T11:20:36.565Z,44.11
2017-09-16T11:21:37.188Z,44.78
2017-09-16T11:22:37.808Z,45.06
2017-09-16T11:23:38.424Z,44.96
2017-09-16T11:24:39.041Z,44.39
2017-09-16T11:25:39.814Z,44.11
2017-09-16T11:26:40.427Z,43.44
2017-09-16T11:27:41.075Z,43.35
2017-09-16T11:28:41.692Z,43.06
2017-09-16T11:29:42.309Z,42.96
2017-09-16T11:30:43.076Z,43.25
2017-09-16T11:31:43.700Z,42.77
2017-09-16T11:32:44.312Z,42.60
2017-09-16T11:33:44.932Z,43.37
2017-09-16T11:34:45.553Z,42.60
2017-09-16T11:35:46.318Z,41.84
2017-09-16T11:36:46.934Z,41.94
2017-09-16T11:37:47.556Z,41.36
2017-09-16T11:38:48.172Z,40.97
2017-09-16T11:39:48.801Z,41.16
2017-09-16T11:40:49.610Z,41.44
2017-09-16T11:41:50.228Z,41.92
2017-09-16T11:42:50.844Z,42.01
2017-09-16T11:43:51.493Z,42.58
2017-09-16T11:44:52.109Z,41.82
2017-09-16T11:45:52.881Z,41.53
2017-09-16T11:46:53.501Z,41.61
2017-09-16T11:47:54.123Z,41.71
2017-09-16T11:48:54.738Z,41.71
2017-09-16T11:49:55.354Z,41.89
2017-09-16T11:50:56.124Z,41.61
2017-09-16T11:51:56.740Z,42.08
2017-09-16T11:52:57.357Z,42.87
2017-09-16T11:53:57.986Z,42.58
2017-09-16T11:54:58.598Z,41.94
2017-09-16T11:55:59.365Z,41.84
2017-09-16T11:57:00.018Z,41.94
2017-09-16T11:58:00.636Z,42.03
2017-09-16T11:59:01.252Z,41.46
2017-09-16T12:00:01.870Z,40.80
2017-09-16T12:01:02.638Z,39.56
2017-09-16T12:02:03.256Z,38.79
2017-09-16T12:03:03.879Z,38.32
2017-09-16T12:04:04.524Z,38.12
2017-09-16T12:05:05.141Z,39.46
2017-09-16T12:06:05.912Z,39.58
2017-09-16T12:07:06.529Z,40.53
2017-09-16T12:08:07.153Z,40.83
2017-09-16T12:09:07.803Z,39.31
2017-09-16T12:10:08.422Z,39.40
2017-09-16T12:11:09.227Z,38.93
2017-09-16T12:12:09.843Z,38.95
2017-09-16T12:13:10.461Z,39.04
2017-09-16T12:14:11.083Z,38.37
2017-09-16T12:15:11.739Z,37.71
2017-09-16T12:16:12.512Z,37.51
2017-09-16T12:17:13.130Z,37.51
2017-09-16T12:18:13.781Z,37.90
2017-09-16T12:19:14.405Z,38.09
2017-09-16T12:20:15.027Z,38.09
2017-09-16T12:21:15.794Z,38.28
2017-09-16T12:22:16.419Z,38.95
2017-09-16T12:23:17.068Z,38.96
2017-09-16T12:24:17.687Z,38.87
2017-09-16T12:25:18.312Z,38.79
2017-09-16T12:26:19.078Z,37.55
2017-09-16T12:27:19.704Z,37.07
2017-09-16T12:28:20.323Z,37.84
2017-09-16T12:29:20.942Z,37.05
2017-09-16T12:30:21.599Z,37.05
2017-09-16T12:31:22.366Z,37.05
2017-09-16T12:32:22.985Z,37.63
2017-09-16T12:33:23.606Z,37.17
2017-09-16T12:34:24.225Z,37.07
2017-09-16T12:35:24.850Z,36.60
2017-09-16T12:36:25.614Z,35.43
2017-09-16T12:37:26.239Z,34.65
2017-09-16T12:38:26.854Z,34.65
2017-09-16T12:39:27.480Z,35.30
2017-09-16T12:40:28.095Z,36.35
2017-09-16T12:41:28.864Z,36.52
2017-09-16T12:42:29.483Z,36.43
2017-09-16T12:43:30.100Z,36.69
2017-09-16T12:44:30.720Z,37.74
2017-09-16T12:45:31.336Z,38.22
2017-09-16T12:46:32.106Z,38.39
2017-09-16T12:47:32.722Z,38.68
2017-09-16T12:48:33.341Z,38.78
2017-09-16T12:49:33.961Z,39.53
2017-09-16T12:50:34.577Z,39.82
2017-09-16T12:51:35.345Z,39.92
2017-09-16T12:52:35.967Z,39.44
2017-09-16T12:53:36.582Z,40.01
2017-09-16T12:54:37.198Z,40.30
2017-09-16T12:55:37.816Z,40.58
2017-09-16T12:56:38.584Z,40.87
2017-09-16T12:57:39.208Z,40.97
2017-09-16T12:58:39.825Z,40.39
2017-09-16T12:59:40.442Z,40.58
2017-09-16T13:00:41.058Z,40.94